Time;durP1;ratioP1;P1;durP2;ratioP2;P2;SDS_P1;SDS_P2;PMS_P1;PMS_P2;Temp;Humidity;BMP_temperature;BMP_pressure;BME280_temperature;BME280_humidity;BME280_pressure;Samples;Min_cycle;Max_cycle;Signal;HPM_P1;HPM_P2
2021/06/01 00:02:04;;;;;;;3.50;3.20;;;;;;;11.73;61.09;99667.97;5005537;28;20257;-79
2021/06/01 00:04:35;;;;;;;5.40;3.07;;;;;;;11.68;61.81;99675.84;4999161;28;20229;-79
2021/06/01 00:07:03;;;;;;;5.17;2.93;;;;;;;11.56;62.00;99656.19;5044674;28;20604;-79
2021/06/01 00:09:30;;;;;;;3.00;2.77;;;;;;;11.47;62.30;99661.84;5041741;28;20257;-79
2021/06/01 00:12:19;;;;;;;3.33;3.03;;;;;;;11.41;62.87;99654.69;5036820;28;20253;-79
2021/06/01 00:14:46;;;;;;;3.17;2.87;;;;;;;11.40;62.71;99649.53;4993916;28;20619;-81
2021/06/01 00:17:14;;;;;;;3.53;2.57;;;;;;;11.30;62.79;99647.38;5020867;28;20230;-80
2021/06/01 00:19:42;;;;;;;3.97;2.90;;;;;;;11.38;63.44;99673.91;5026282;28;20238;-80
2021/06/01 00:22:09;;;;;;;4.10;3.23;;;;;;;11.35;63.89;99666.31;5041283;28;20230;-80
2021/06/01 00:24:56;;;;;;;2.90;2.60;;;;;;;11.28;64.20;99667.44;5018645;28;20230;-80
2021/06/01 00:27:23;;;;;;;3.40;3.10;;;;;;;11.14;64.04;99647.16;5021790;28;20579;-80
2021/06/01 00:29:52;;;;;;;3.43;3.13;;;;;;;11.15;63.90;99660.34;5013408;28;20257;-80
2021/06/01 00:32:21;;;;;;;3.80;2.97;;;;;;;11.11;64.83;99664.50;5024205;28;20240;-81
2021/06/01 00:34:49;;;;;;;3.53;2.80;;;;;;;11.11;65.17;99661.81;5018624;28;20611;-80
2021/06/01 00:37:15;;;;;;;3.30;2.77;;;;;;;11.08;65.36;99664.13;5004873;28;20246;-80
2021/06/01 00:39:43;;;;;;;2.80;2.60;;;;;;;11.06;65.51;99667.03;5008063;28;20488;-80
2021/06/01 00:42:10;;;;;;;3.27;2.90;;;;;;;11.08;65.65;99670.31;5008012;28;20230;-80
2021/06/01 00:44:37;;;;;;;4.23;3.07;;;;;;;10.93;66.01;99651.91;5025468;28;20305;-79
2021/06/01 00:47:04;;;;;;;3.33;3.03;;;;;;;10.95;65.53;99654.38;5026560;28;20577;-80
2021/06/01 00:49:32;;;;;;;3.80;2.70;;;;;;;11.00;65.14;99659.91;5023433;28;20241;-81
2021/06/01 00:52:02;;;;;;;3.30;2.60;;;;;;;11.03;64.65;99659.44;5043371;23;20226;-80
2021/06/01 00:54:34;;;;;;;3.93;2.90;;;;;;;10.93;65.29;99653.75;4990727;28;20641;-80
2021/06/01 00:57:01;;;;;;;4.00;2.80;;;;;;;10.94;65.73;99655.41;5025755;28;20248;-80
2021/06/01 00:59:29;;;;;;;2.67;2.40;;;;;;;10.93;65.15;99667.16;5009548;28;20230;-80
2021/06/01 01:01:57;;;;;;;4.00;2.93;;;;;;;10.91;65.73;99659.38;5005156;28;20219;-80
2021/06/01 01:04:29;;;;;;;3.00;2.70;;;;;;;10.91;64.80;99664.72;5004277;28;20230;-80
2021/06/01 01:07:21;;;;;;;3.07;2.47;;;;;;;10.91;64.89;99667.41;5007174;28;20309;-80
2021/06/01 01:09:50;;;;;;;3.97;2.80;;;;;;;10.81;65.46;99663.59;5005768;28;20249;-81
2021/06/01 01:12:31;;;;;;;2.60;2.37;;;;;;;10.85;65.31;99668.28;5007568;28;20254;-80
2021/06/01 01:15:02;;;;;;;5.50;2.93;;;;;;;10.88;65.54;99669.69;5013453;28;20246;-81
2021/06/01 01:17:38;;;;;;;3.07;2.80;;;;;;;10.87;65.47;99676.91;5019646;23;20325;-80
2021/06/01 01:20:37;;;;;;;3.17;2.53;;;;;;;10.79;64.22;99671.00;5027210;23;20238;-81
2021/06/01 01:23:16;;;;;;;3.63;2.80;;;;;;;10.79;64.02;99677.19;4966752;28;20211;-80
2021/06/01 01:25:46;;;;;;;2.90;2.70;;;;;;;10.84;63.98;99684.56;4986099;28;20219;-80
2021/06/01 01:28:44;;;;;;;3.30;2.60;;;;;;;10.77;65.82;99676.59;4987940;28;20234;-80
2021/06/01 01:31:19;;;;;;;2.80;2.57;;;;;;;10.77;65.93;99678.47;4998591;28;20230;-80
2021/06/01 01:33:48;;;;;;;3.17;2.60;;;;;;;10.65;65.87;99659.59;5023562;28;20230;-80
2021/06/01 01:36:17;;;;;;;4.60;2.60;;;;;;;10.69;65.95;99682.22;5009501;28;20669;-80
2021/06/01 01:38:46;;;;;;;3.27;2.50;;;;;;;10.60;66.63;99667.47;5008139;28;20317;-80
2021/06/01 01:41:25;;;;;;;4.33;2.90;;;;;;;10.64;66.59;99676.69;4998733;28;20230;-80
2021/06/01 01:43:56;;;;;;;3.60;2.63;;;;;;;10.56;67.14;99671.63;4975012;28;20234;-80
2021/06/01 01:49:01;;;;;;;3.97;2.43;;;;;;;10.48;67.96;99671.91;5024675;28;20186;-80
2021/06/01 01:51:35;;;;;;;3.20;2.83;;;;;;;10.50;68.50;99685.88;4999575;28;20226;-80
2021/06/01 01:54:07;;;;;;;2.70;2.50;;;;;;;10.40;68.61;99661.47;4989557;28;20228;-80
2021/06/01 01:56:37;;;;;;;3.10;2.67;;;;;;;10.34;69.04;99665.81;4989309;28;20204;-80
2021/06/01 01:59:07;;;;;;;3.87;2.70;;;;;;;10.31;69.45;99671.59;4988354;28;20234;-80
2021/06/01 02:01:34;;;;;;;3.77;2.80;;;;;;;10.27;69.76;99688.31;4997848;28;20222;-80
2021/06/01 02:04:03;;;;;;;3.80;2.60;;;;;;;10.13;70.20;99672.28;4992095;28;20235;-80
2021/06/01 02:06:32;;;;;;;4.13;2.77;;;;;;;10.14;70.60;99687.34;5008082;28;20250;-80
2021/06/01 02:08:59;;;;;;;4.43;2.80;;;;;;;10.09;70.52;99683.66;5005040;28;20226;-81
2021/06/01 02:11:26;;;;;;;4.43;2.93;;;;;;;10.03;70.31;99681.84;5006764;28;20280;-80
2021/06/01 02:14:01;;;;;;;3.27;2.90;;;;;;;10.00;70.99;99691.13;5008458;28;20237;-81
2021/06/01 02:16:31;;;;;;;3.67;2.97;;;;;;;9.92;71.36;99677.16;5000255;28;20612;-80
2021/06/01 02:19:02;;;;;;;3.20;2.90;;;;;;;9.78;71.31;99672.91;4988931;28;20234;-80
2021/06/01 02:21:47;;;;;;;4.20;2.83;;;;;;;9.77;71.96;99685.47;4986952;28;20262;-80
2021/06/01 02:24:39;;;;;;;3.93;2.73;;;;;;;9.63;72.05;99676.69;5003173;28;20239;-80
2021/06/01 02:27:38;;;;;;;3.10;2.80;;;;;;;9.63;72.89;99687.38;4981766;28;20236;-80
2021/06/01 02:30:08;;;;;;;4.77;3.00;;;;;;;9.57;73.11;99679.38;4991112;28;20618;-80
2021/06/01 02:32:39;;;;;;;4.23;3.57;;;;;;;9.51;73.19;99677.56;5011953;28;20243;-81
2021/06/01 02:35:10;;;;;;;3.90;2.80;;;;;;;9.40;74.16;99675.53;5004473;28;20239;-81
2021/06/01 02:37:43;;;;;;;4.80;3.23;;;;;;;9.30;73.91;99659.94;5017049;28;20241;-79
2021/06/01 02:40:12;;;;;;;3.27;2.80;;;;;;;9.27;73.71;99663.03;5010432;23;20231;-80
2021/06/01 02:42:43;;;;;;;5.60;3.17;;;;;;;9.24;73.65;99664.25;5001187;28;20653;-81
2021/06/01 02:45:23;;;;;;;3.30;3.00;;;;;;;9.20;74.27;99665.72;5003786;28;20231;-81
2021/06/01 02:47:51;;;;;;;3.53;3.23;;;;;;;9.15;74.39;99673.53;5003602;28;20239;-80
2021/06/01 02:50:19;;;;;;;4.60;2.80;;;;;;;9.05;75.12;99667.81;5003453;28;20237;-80
2021/06/01 02:52:48;;;;;;;4.03;2.90;;;;;;;8.97;74.89;99661.84;4991995;28;20279;-81
2021/06/01 02:55:17;;;;;;;3.43;3.13;;;;;;;8.99;74.96;99681.19;4984610;28;20227;-80
2021/06/01 02:57:48;;;;;;;5.20;3.20;;;;;;;8.88;75.15;99658.59;4981280;28;20228;-80
2021/06/01 03:00:18;;;;;;;3.90;3.30;;;;;;;8.82;75.78;99670.91;4983906;28;20243;-80
2021/06/01 03:02:47;;;;;;;3.40;3.10;;;;;;;8.72;75.81;99659.03;4994246;28;20227;-81
2021/06/01 03:05:20;;;;;;;3.63;3.23;;;;;;;8.81;75.65;99673.81;5003548;28;20215;-80
2021/06/01 03:07:51;;;;;;;3.40;3.10;;;;;;;8.67;76.37;99666.84;5001357;28;20322;-83
2021/06/01 03:10:19;;;;;;;3.83;3.50;;;;;;;8.63;76.00;99671.75;5002363;28;20219;-81
2021/06/01 03:12:55;;;;;;;3.87;3.57;;;;;;;8.62;76.30;99666.63;4993809;28;20234;-81
2021/06/01 03:15:23;;;;;;;5.27;3.10;;;;;;;8.65;76.33;99677.72;4985887;28;20239;-80
2021/06/01 03:17:50;;;;;;;7.43;3.20;;;;;;;8.66;76.32;99679.38;4993085;28;20564;-81
2021/06/01 03:20:17;;;;;;;7.83;3.63;;;;;;;8.62;76.43;99663.97;5005229;28;20718;-81
2021/06/01 03:22:45;;;;;;;4.57;3.33;;;;;;;8.67;75.96;99681.03;4997043;28;20219;-80
2021/06/01 03:25:14;;;;;;;4.63;3.77;;;;;;;8.65;75.91;99676.91;4988600;28;20255;-80
2021/06/01 03:27:42;;;;;;;4.60;3.30;;;;;;;8.60;75.33;99668.69;4994208;28;20227;-80
2021/06/01 03:30:10;;;;;;;3.73;3.37;;;;;;;8.64;75.98;99673.41;5006081;28;20609;-80
2021/06/01 03:32:39;;;;;;;3.97;3.60;;;;;;;8.70;75.28;99672.59;5001443;23;21307;-80
2021/06/01 03:35:06;;;;;;;4.40;3.30;;;;;;;8.71;75.67;99668.88;5031003;28;20222;-80
2021/06/01 03:37:35;;;;;;;5.43;3.67;;;;;;;8.78;75.85;99671.53;5029989;28;20633;-80
2021/06/01 03:40:05;;;;;;;5.10;3.07;;;;;;;8.85;75.55;99675.03;5045614;28;20318;-80
2021/06/01 03:42:32;;;;;;;3.80;3.50;;;;;;;8.82;75.33;99662.06;4994473;28;20222;-80
2021/06/01 03:44:59;;;;;;;5.67;3.70;;;;;;;8.89;74.94;99670.09;5026827;28;20253;-80
2021/06/01 03:47:26;;;;;;;4.27;3.20;;;;;;;8.97;74.93;99678.72;4993609;28;20231;-80
2021/06/01 03:49:57;;;;;;;4.70;3.50;;;;;;;8.95;75.35;99663.94;5026890;28;20215;-80
2021/06/01 03:52:24;;;;;;;4.70;3.43;;;;;;;9.04;75.23;99671.53;5027802;28;20622;-81
2021/06/01 03:54:51;;;;;;;6.07;3.10;;;;;;;9.24;75.00;99672.28;5030479;28;20218;-81
2021/06/01 03:57:18;;;;;;;5.23;3.50;;;;;;;9.78;72.71;99672.91;5045097;28;20230;-80
2021/06/01 03:59:45;;;;;;;3.70;3.40;;;;;;;11.77;67.25;99686.06;5012066;28;20595;-81
2021/06/01 04:02:13;;;;;;;3.40;3.10;;;;;;;13.50;60.16;99693.88;5010729;28;20218;-80
2021/06/01 04:04:41;;;;;;;8.43;3.47;;;;;;;14.81;56.04;99690.97;5027406;28;20268;-80
2021/06/01 04:07:12;;;;;;;3.67;3.00;;;;;;;15.32;53.98;99680.94;5030862;28;20573;-80
2021/06/01 04:09:39;;;;;;;3.30;3.00;;;;;;;15.37;53.65;99676.41;4996681;28;20279;-80
2021/06/01 04:12:10;;;;;;;3.33;3.03;;;;;;;15.19;54.37;99692.91;5014147;28;20210;-80
2021/06/01 04:14:38;;;;;;;4.03;2.80;;;;;;;15.32;53.76;99675.53;5030999;28;20223;-80
2021/06/01 04:17:05;;;;;;;4.10;2.80;;;;;;;15.37;53.41;99681.00;5029163;28;20246;-81
2021/06/01 04:19:36;;;;;;;3.50;2.87;;;;;;;15.47;53.41;99685.72;5026718;28;20234;-80
2021/06/01 04:22:08;;;;;;;4.07;3.07;;;;;;;15.53;53.04;99688.28;5048703;28;20284;-80
2021/06/01 04:24:36;;;;;;;4.40;3.27;;;;;;;15.62;52.50;99670.56;5014772;28;20251;-80
2021/06/01 04:27:10;;;;;;;3.60;3.30;;;;;;;16.09;51.62;99686.25;5035350;28;20628;-80
2021/06/01 04:29:36;;;;;;;3.50;3.20;;;;;;;16.43;50.31;99689.53;5031311;28;20230;-80
2021/06/01 04:32:04;;;;;;;5.17;2.90;;;;;;;16.12;50.20;99683.84;5044226;28;20230;-80
2021/06/01 04:34:32;;;;;;;2.83;2.53;;;;;;;15.57;51.54;99665.09;4993506;28;20658;-84
2021/06/01 04:36:58;;;;;;;4.20;3.10;;;;;;;15.32;52.64;99680.94;4986235;28;20228;-81
2021/06/01 04:39:26;;;;;;;3.43;2.77;;;;;;;15.06;53.58;99682.47;5012268;28;20313;-81
2021/06/01 04:41:52;;;;;;;5.57;3.17;;;;;;;14.90;54.34;99691.38;5019890;28;20230;-81
2021/06/01 04:44:19;;;;;;;4.00;3.00;;;;;;;14.76;54.53;99687.38;5010154;28;20705;-81
2021/06/01 04:46:46;;;;;;;3.30;3.00;;;;;;;14.73;54.62;99687.88;5000246;28;20224;-81
2021/06/01 04:49:13;;;;;;;4.17;3.23;;;;;;;14.56;54.63;99687.06;4992002;28;20510;-85
2021/06/01 04:51:40;;;;;;;3.80;3.50;;;;;;;14.55;55.11;99680.84;4987161;28;20685;-81
2021/06/01 04:54:07;;;;;;;3.50;3.20;;;;;;;14.52;53.81;99692.91;5012700;28;20731;-80
2021/06/01 04:56:33;;;;;;;3.33;2.90;;;;;;;14.68;53.17;99691.31;5016946;28;20224;-84
2021/06/01 04:59:00;;;;;;;6.67;3.03;;;;;;;14.71;52.35;99698.06;5004945;28;20302;-83
2021/06/01 05:01:27;;;;;;;4.33;2.93;;;;;;;14.81;52.01;99693.66;5019533;28;20258;-84
2021/06/01 05:03:54;;;;;;;3.17;2.40;;;;;;;14.91;52.46;99687.63;4999622;28;20251;-81
2021/06/01 05:06:21;;;;;;;4.60;2.90;;;;;;;14.97;52.48;99684.78;4999498;28;20617;-87
2021/06/01 05:08:48;;;;;;;4.37;3.20;;;;;;;15.09;52.05;99698.16;5001347;28;20231;-78
2021/06/01 05:11:15;;;;;;;3.07;2.87;;;;;;;15.18;51.23;99699.38;5019017;28;20255;-78
2021/06/01 05:13:42;;;;;;;3.13;2.80;;;;;;;15.37;50.15;99687.22;5002696;28;20323;-84
2021/06/01 05:16:09;;;;;;;4.57;2.90;;;;;;;15.46;49.87;99684.09;4982810;28;20228;-81
2021/06/01 05:18:36;;;;;;;3.33;3.03;;;;;;;15.63;49.11;99698.41;4983504;28;20292;-79
2021/06/01 05:21:07;;;;;;;3.13;2.87;;;;;;;15.59;48.95;99679.16;5002087;28;20239;-86
2021/06/01 05:23:34;;;;;;;4.30;3.03;;;;;;;15.69;49.16;99695.50;5019191;28;20310;-78
2021/06/01 05:26:03;;;;;;;6.20;3.40;;;;;;;15.80;47.55;99691.03;5000602;28;20320;-80
2021/06/01 05:28:30;;;;;;;4.67;2.90;;;;;;;15.66;48.50;99700.59;4999598;28;20226;-83
2021/06/01 05:31:04;;;;;;;5.87;3.10;;;;;;;15.56;48.22;99695.06;4999196;28;20253;-80
2021/06/01 05:33:36;;;;;;;7.97;3.00;;;;;;;15.80;48.67;99693.75;5003543;28;20241;-78
2021/06/01 05:36:04;;;;;;;4.50;3.10;;;;;;;16.00;47.37;99702.09;4986053;28;20629;-78
2021/06/01 05:38:31;;;;;;;4.77;3.10;;;;;;;16.07;47.59;99708.09;4983094;28;20285;-82
2021/06/01 05:41:00;;;;;;;6.10;3.10;;;;;;;16.21;47.19;99697.72;4997801;28;20236;-77
2021/06/01 05:43:29;;;;;;;5.10;3.20;;;;;;;16.15;46.59;99699.53;5002078;28;20253;-78
2021/06/01 05:45:56;;;;;;;3.90;2.90;;;;;;;16.22;46.39;99686.66;4999327;28;20309;-82
2021/06/01 05:48:23;;;;;;;5.47;3.03;;;;;;;16.26;45.92;99689.66;4982428;28;20227;-83
2021/06/01 05:50:50;;;;;;;3.17;2.87;;;;;;;16.38;43.28;99687.59;4992353;28;20237;-83
2021/06/01 05:53:17;;;;;;;4.23;2.70;;;;;;;16.32;43.35;99690.53;4999017;28;20264;-83
2021/06/01 05:55:44;;;;;;;3.37;2.70;;;;;;;16.23;44.25;99687.47;5010222;28;20237;-82
2021/06/01 05:58:11;;;;;;;3.60;2.83;;;;;;;16.25;43.95;99691.53;5017788;28;20282;-79
2021/06/01 06:00:38;;;;;;;5.90;3.10;;;;;;;16.36;42.75;99702.47;4998024;28;20236;-88
2021/06/01 06:03:05;;;;;;;3.10;2.80;;;;;;;16.35;43.18;99706.22;5016684;28;20232;-86
2021/06/01 06:05:33;;;;;;;3.30;2.90;;;;;;;16.49;43.49;99707.47;5015651;28;20313;-90
2021/06/01 06:08:10;;;;;;;5.60;2.97;;;;;;;16.60;43.57;99701.94;4999403;28;20251;-84
2021/06/01 06:10:37;;;;;;;6.10;2.80;;;;;;;16.57;42.61;99699.69;4998996;28;20222;-79
2021/06/01 06:13:05;;;;;;;5.70;2.80;;;;;;;16.69;42.40;99704.97;5015737;28;20287;-90
2021/06/01 06:15:32;;;;;;;5.60;3.10;;;;;;;16.67;42.88;99699.81;4998028;28;20346;-88
2021/06/01 06:18:37;;;;;;;8.23;3.07;;;;;;;16.56;42.76;99708.06;5034794;28;20230;-90
2021/06/01 06:21:06;;;;;;;4.60;3.27;;;;;;;16.76;42.59;99702.03;5017896;28;20345;-79
2021/06/01 06:23:35;;;;;;;3.53;3.20;;;;;;;16.84;42.02;99709.69;5001730;28;20659;-82
2021/06/01 06:26:02;;;;;;;6.50;3.20;;;;;;;16.61;42.58;99687.31;5025307;28;20527;-83
2021/06/01 06:28:30;;;;;;;4.37;3.53;;;;;;;16.86;41.72;99697.53;4998670;28;20264;-88
2021/06/01 06:30:57;;;;;;;4.20;3.20;;;;;;;16.77;42.77;99699.09;4989045;28;20250;-84
2021/06/01 06:33:24;;;;;;;4.67;3.10;;;;;;;17.03;42.49;99710.94;5001388;28;20628;-87
2021/06/01 06:35:51;;;;;;;6.73;3.23;;;;;;;17.05;42.04;99715.00;4985345;28;20277;-88
2021/06/01 06:38:18;;;;;;;3.87;3.47;;;;;;;17.20;42.36;99711.59;4981524;28;20596;-79
2021/06/01 06:40:54;;;;;;;4.53;3.10;;;;;;;17.29;41.35;99709.22;5001099;28;20614;-79
2021/06/01 06:43:21;;;;;;;5.17;3.30;;;;;;;17.21;42.80;99707.81;5017884;28;20298;-89
2021/06/01 06:45:48;;;;;;;3.40;3.10;;;;;;;17.39;41.32;99704.69;5017868;28;20248;-90
2021/06/01 06:48:15;;;;;;;4.27;3.10;;;;;;;17.40;40.95;99710.91;5000841;28;20238;-80
2021/06/01 06:50:42;;;;;;;4.40;2.80;;;;;;;17.49;41.17;99715.56;4997578;28;20627;-81
2021/06/01 06:53:13;;;;;;;5.77;3.30;;;;;;;17.58;40.66;99724.00;4982233;28;20261;-85
2021/06/01 06:55:40;;;;;;;3.87;3.17;;;;;;;17.68;40.87;99707.84;5001495;28;20238;-79
2021/06/01 06:58:06;;;;;;;5.03;2.93;;;;;;;17.53;40.77;99716.66;5009255;28;20233;-85
2021/06/01 07:00:35;;;;;;;3.77;3.37;;;;;;;17.58;41.61;99711.31;5032579;28;20307;-86
2021/06/01 07:03:02;;;;;;;3.80;3.23;;;;;;;17.75;40.80;99699.44;4981777;28;20255;-87
2021/06/01 07:05:29;;;;;;;4.50;3.37;;;;;;;17.58;40.20;99707.75;5001015;28;20715;-85
2021/06/01 07:07:57;;;;;;;4.27;2.90;;;;;;;17.63;41.64;99702.41;5017597;28;20238;-81
2021/06/01 07:10:24;;;;;;;3.40;3.10;;;;;;;17.79;40.29;99704.06;5000725;28;20263;-84
2021/06/01 07:12:52;;;;;;;6.40;3.53;;;;;;;17.92;40.13;99692.75;5001124;28;20653;-82
2021/06/01 07:15:20;;;;;;;3.33;3.03;;;;;;;18.10;40.23;99715.06;5017658;28;20233;-88
2021/06/01 07:17:47;;;;;;;4.77;3.13;;;;;;;18.09;38.85;99703.38;4999714;28;20309;-83
2021/06/01 07:20:15;;;;;;;4.73;2.97;;;;;;;18.38;39.93;99704.53;4981089;28;20868;-81
2021/06/01 07:22:42;;;;;;;6.17;3.17;;;;;;;18.42;39.21;99704.81;4997144;28;20241;-88
2021/06/01 07:25:10;;;;;;;4.83;3.10;;;;;;;18.57;39.02;99706.78;5034549;28;20233;-83
2021/06/01 07:27:37;;;;;;;6.50;3.13;;;;;;;18.61;38.47;99694.28;4986364;28;20234;-88
2021/06/01 07:30:05;;;;;;;4.00;3.00;;;;;;;18.72;37.67;99707.56;5008882;28;20230;-86
2021/06/01 07:32:32;;;;;;;6.00;3.13;;;;;;;18.75;38.04;99703.53;5017014;28;20275;-88
2021/06/01 07:35:01;;;;;;;4.43;3.27;;;;;;;18.89;38.24;99699.19;5000397;28;20573;-83
2021/06/01 07:37:30;;;;;;;3.93;2.77;;;;;;;18.67;37.40;99698.63;4985873;28;20599;-86
2021/06/01 07:39:56;;;;;;;4.33;3.20;;;;;;;18.64;37.58;99708.13;4979223;28;20647;-83
2021/06/01 07:42:23;;;;;;;6.00;2.80;;;;;;;18.44;37.27;99695.31;5006944;28;20528;-87
2021/06/01 07:44:50;;;;;;;5.03;2.80;;;;;;;18.66;37.53;99697.00;5016673;28;20321;-85
2021/06/01 07:47:17;;;;;;;5.53;2.90;;;;;;;18.58;37.15;99700.25;4987114;28;20229;-86
2021/06/01 07:49:44;;;;;;;5.57;2.93;;;;;;;18.72;37.42;99690.47;4997206;28;20635;-79
2021/06/01 07:52:11;;;;;;;5.50;2.80;;;;;;;18.72;36.49;99699.44;4984555;28;20642;-88
2021/06/01 07:54:37;;;;;;;6.23;2.80;;;;;;;18.77;36.86;99688.59;4981163;28;20262;-86
2021/06/01 07:57:05;;;;;;;3.73;3.07;;;;;;;18.83;36.58;99706.50;5021429;28;20636;-84
2021/06/01 07:59:32;;;;;;;3.37;2.90;;;;;;;18.74;37.24;99680.19;5017236;28;20250;-89
2021/06/01 08:01:59;;;;;;;4.00;2.67;;;;;;;19.07;36.38;99685.03;4995766;28;20230;-80
2021/06/01 08:04:26;;;;;;;4.70;2.80;;;;;;;19.05;35.67;99689.09;5009986;28;20276;-85
2021/06/01 08:06:53;;;;;;;3.47;2.37;;;;;;;18.95;35.72;99673.63;5017248;28;20289;-80
2021/06/01 08:09:19;;;;;;;3.63;2.60;;;;;;;18.72;33.99;99666.88;4984169;28;20320;-87
2021/06/01 08:11:46;;;;;;;3.20;2.23;;;;;;;19.11;34.65;99688.03;4986029;28;20233;-80
2021/06/01 08:14:13;;;;;;;3.00;2.70;;;;;;;19.12;34.68;99686.94;5019443;28;20711;-86
2021/06/01 08:16:43;;;;;;;4.60;2.70;;;;;;;19.45;34.44;99683.66;5003437;28;20313;-83
2021/06/01 08:19:13;;;;;;;6.00;2.60;;;;;;;19.42;32.35;99658.88;5000619;28;20265;-86
2021/06/01 08:21:56;;;;;;;3.57;2.50;;;;;;;19.52;34.15;99689.59;4983757;28;20262;-87
2021/06/01 08:24:22;;;;;;;4.80;2.70;;;;;;;19.91;31.75;99675.31;5004940;28;20233;-82
2021/06/01 08:26:50;;;;;;;3.93;2.90;;;;;;;20.04;32.17;99674.69;5003349;28;20750;-84
2021/06/01 08:29:17;;;;;;;4.20;2.77;;;;;;;20.21;32.09;99675.94;4983930;28;20230;-84
2021/06/01 08:31:46;;;;;;;4.83;2.60;;;;;;;20.16;31.11;99684.13;5032453;28;20314;-87
2021/06/01 08:34:13;;;;;;;4.90;2.30;;;;;;;19.86;31.94;99668.00;5035429;28;20309;-89
2021/06/01 08:36:40;;;;;;;4.63;2.47;;;;;;;20.00;32.87;99682.59;5019480;28;20300;-87
2021/06/01 08:39:09;;;;;;;4.07;2.40;;;;;;;19.94;31.07;99666.56;4985961;28;20286;-85
2021/06/01 08:41:36;;;;;;;4.20;2.37;;;;;;;20.56;31.08;99664.03;5000067;28;20251;-86
2021/06/01 08:44:04;;;;;;;6.53;2.50;;;;;;;21.40;29.53;99676.34;4998677;28;20377;-80
2021/06/01 08:46:33;;;;;;;3.80;2.60;;;;;;;22.09;28.76;99671.44;5003095;28;20281;-87
2021/06/01 08:49:00;;;;;;;2.47;2.13;;;;;;;22.46;28.31;99676.88;5004648;28;20226;-82
2021/06/01 08:51:27;;;;;;;3.73;2.33;;;;;;;21.64;27.48;99665.44;5000040;28;20231;-78
2021/06/01 08:53:56;;;;;;;3.90;2.23;;;;;;;21.63;26.72;99661.09;5029970;28;20238;-84
2021/06/01 08:56:24;;;;;;;2.53;1.93;;;;;;;21.94;26.49;99659.63;4986530;28;20320;-84
2021/06/01 08:58:51;;;;;;;3.90;1.97;;;;;;;21.60;27.65;99658.16;4990711;28;20245;-84
2021/06/01 09:01:19;;;;;;;3.90;1.93;;;;;;;21.44;27.70;99666.50;4983352;28;20311;-84
2021/06/01 09:03:54;;;;;;;5.80;2.00;;;;;;;21.59;27.33;99662.78;5001868;28;20223;-79
2021/06/01 09:09:24;;;;;;;4.37;2.00;;;;;;;21.68;26.89;99663.75;4992960;28;20254;-81
2021/06/01 09:14:36;;;;;;;3.37;1.90;;;;;;;21.24;26.13;99653.06;5004573;28;20242;-80
2021/06/01 09:22:49;;;;;;;3.50;1.70;;;;;;;21.25;25.66;99648.44;5015537;28;20701;-83
2021/06/01 09:25:32;;;;;;;4.27;1.80;;;;;;;21.09;25.67;99651.28;4999494;28;21258;-84
2021/06/01 09:27:59;;;;;;;3.10;1.90;;;;;;;20.59;25.86;99660.75;5016975;28;20242;-81
2021/06/01 09:30:46;;;;;;;4.80;1.90;;;;;;;20.18;26.23;99656.66;4981923;28;20579;-79
2021/06/01 09:33:17;;;;;;;4.37;1.60;;;;;;;20.26;26.70;99652.50;4984528;28;20595;-83
2021/06/01 09:35:52;;;;;;;3.87;1.90;;;;;;;20.26;26.04;99649.78;5035741;28;20226;-83
2021/06/01 09:38:25;;;;;;;4.90;2.07;;;;;;;20.82;24.56;99633.88;4982986;28;20675;-81
2021/06/01 09:41:09;;;;;;;2.43;1.80;;;;;;;21.02;26.45;99642.66;4999014;28;20236;-82
2021/06/01 09:43:56;;;;;;;2.33;2.00;;;;;;;20.31;26.84;99642.44;4986719;28;20228;-84
2021/06/01 09:46:29;;;;;;;4.93;1.90;;;;;;;20.81;27.27;99638.50;5001886;28;20619;-83
2021/06/01 09:49:16;;;;;;;3.27;1.77;;;;;;;20.99;25.39;99636.97;5029592;28;20224;-83
2021/06/01 09:51:58;;;;;;;4.10;1.93;;;;;;;20.72;26.78;99631.25;4998670;28;20226;-82
2021/06/01 09:54:38;;;;;;;3.07;2.20;;;;;;;21.39;26.09;99641.22;5008510;28;20233;-78
2021/06/01 09:57:22;;;;;;;2.60;2.17;;;;;;;21.89;26.71;99632.38;5002110;28;20290;-80
2021/06/01 10:00:19;;;;;;;4.10;2.23;;;;;;;21.46;29.08;99628.84;5005888;28;20223;-79
2021/06/01 10:02:51;;;;;;;4.13;2.50;;;;;;;21.04;28.96;99645.88;4997865;28;20226;-78
2021/06/01 10:05:21;;;;;;;5.20;2.37;;;;;;;20.88;29.15;99622.66;4994260;28;20246;-77
2021/06/01 10:07:49;;;;;;;3.07;2.23;;;;;;;20.50;29.49;99624.34;4998071;28;20546;-80
2021/06/01 10:10:31;;;;;;;3.70;2.50;;;;;;;20.33;29.21;99631.28;5025243;28;20223;-80
2021/06/01 10:13:00;;;;;;;4.07;2.23;;;;;;;20.50;29.49;99627.06;5014125;28;20532;-80
2021/06/01 10:15:28;;;;;;;5.40;2.50;;;;;;;20.63;30.92;99620.16;5018832;28;20241;-79
2021/06/01 10:18:00;;;;;;;2.50;2.30;;;;;;;20.77;29.44;99623.00;4982421;28;20234;-78
2021/06/01 10:20:30;;;;;;;3.27;2.57;;;;;;;20.61;29.33;99628.63;5012214;28;20655;-78
2021/06/01 10:22:57;;;;;;;3.10;2.30;;;;;;;20.46;28.09;99622.47;5000611;28;20234;-80
2021/06/01 10:25:24;;;;;;;4.07;2.17;;;;;;;20.67;29.32;99630.19;4987981;28;20262;-80
2021/06/01 10:27:52;;;;;;;2.83;2.30;;;;;;;20.76;28.50;99622.22;4981337;28;20245;-80
2021/06/01 10:30:21;;;;;;;3.67;2.20;;;;;;;21.75;26.72;99606.13;4993375;28;20281;-78
2021/06/01 10:32:53;;;;;;;4.73;2.40;;;;;;;22.30;26.97;99627.16;5034916;28;20248;-80
2021/06/01 10:35:23;;;;;;;3.20;1.90;;;;;;;22.43;26.88;99625.63;5005962;28;20285;-79
2021/06/01 10:52:02;;;;;;;2.70;1.80;;;;;;;22.11;27.07;99607.28;4997381;28;20243;-78
2021/06/01 10:54:43;;;;;;;3.43;2.00;;;;;;;21.94;26.55;99605.06;5003432;28;20232;-78
2021/06/01 10:57:12;;;;;;;7.00;2.33;;;;;;;21.95;26.97;99605.88;5005594;28;20313;-82
2021/06/01 11:02:25;;;;;;;2.90;2.07;;;;;;;21.50;27.19;99604.56;4998257;28;20274;-80
2021/06/01 11:05:07;;;;;;;5.30;2.00;;;;;;;21.49;25.39;99600.22;4997009;28;20342;-79
2021/06/01 11:07:57;;;;;;;3.90;2.30;;;;;;;21.89;26.39;99598.84;5014409;28;20636;-79
2021/06/01 11:10:45;;;;;;;3.90;2.27;;;;;;;22.31;24.90;99595.22;5021313;28;20235;-81
2021/06/01 11:13:31;;;;;;;3.23;2.17;;;;;;;21.68;27.47;99597.50;4981094;28;20222;-80
2021/06/01 11:15:59;;;;;;;3.70;2.10;;;;;;;21.13;27.33;99579.91;5008480;28;20231;-79
2021/06/01 11:18:39;;;;;;;4.00;2.00;;;;;;;21.92;25.67;99595.53;5000259;28;20227;-78
2021/06/01 11:21:40;;;;;;;5.43;2.13;;;;;;;21.52;25.92;99594.16;5006696;28;20232;-80
2021/06/01 11:25:14;;;;;;;7.27;2.50;;;;;;;21.87;25.14;99588.25;4998369;28;20239;-78
2021/06/01 11:33:15;;;;;;;4.23;2.10;;;;;;;22.45;25.82;99598.81;5023111;28;20230;-80
2021/06/01 11:35:37;;;;;;;2.07;1.93;;;;;;;22.10;26.58;99583.03;5001801;28;20217;-80
2021/06/01 11:38:21;;;;;;;2.37;1.90;;;;;;;21.79;25.20;99574.47;5000702;28;20286;-80
2021/06/01 11:43:24;;;;;;;2.73;2.07;;;;;;;22.54;25.55;99585.28;5001042;28;20243;-79
2021/06/01 11:46:09;;;;;;;3.47;2.20;;;;;;;22.73;25.36;99572.44;5017602;28;20258;-80
2021/06/01 11:51:13;;;;;;;4.33;2.40;;;;;;;23.14;25.60;99581.47;5034464;28;20251;-80
2021/06/01 11:53:47;;;;;;;4.40;2.50;;;;;;;22.40;26.48;99561.50;5003794;28;20634;-78
2021/06/01 11:56:18;;;;;;;4.60;2.40;;;;;;;23.12;25.80;99582.91;5011560;28;20236;-80
2021/06/01 12:02:58;;;;;;;3.50;2.43;;;;;;;23.79;22.96;99564.84;5027502;28;20225;-80
2021/06/01 12:04:58;;;;;;;3.17;2.00;;;;;;;24.03;23.84;99570.03;5007661;28;20223;-79
2021/06/01 12:13:50;;;;;;;3.43;2.10;;;;;;;23.44;24.24;99560.97;5016478;28;20312;-80
2021/06/01 12:18:52;;;;;;;2.80;2.00;;;;;;;24.14;22.99;99555.81;5013854;28;20535;-79
2021/06/01 12:21:21;;;;;;;3.15;2.20;;;;;;;24.37;23.93;99566.78;4997674;28;20637;-80
2021/06/01 12:23:57;;;;;;;3.70;2.13;;;;;;;24.24;23.79;99548.50;4987736;28;20255;-79
2021/06/01 12:32:29;;;;;;;2.60;2.40;;;;;;;23.63;22.73;99553.44;5036403;28;20226;-80
2021/06/01 13:23:38;;;;;;;3.53;2.20;;;;;;;24.89;24.68;99533.09;5010505;28;20238;-79
2021/06/01 13:56:34;;;;;;;2.45;2.00;;;;;;;30.07;17.11;99510.31;5001404;28;20253;-82
2021/06/01 13:59:31;;;;;;;3.72;2.10;;;;;;;33.00;14.60;99510.66;5006573;28;20241;-82
2021/06/01 15:08:34;;;;;;;4.53;2.30;;;;;;;22.94;25.36;99474.53;5017102;28;20648;-79
2021/06/01 15:49:48;;;;;;;3.30;2.00;;;;;;;22.40;26.39;99446.06;5016217;28;20518;-81
2021/06/01 17:05:32;;;;;;;2.13;1.80;;;;;;;21.61;29.11;99458.00;5002974;28;20236;-82
2021/06/01 17:13:24;;;;;;;2.13;1.93;;;;;;;21.65;29.02;99446.22;5003815;28;20252;-82
2021/06/01 17:15:54;;;;;;;3.77;2.10;;;;;;;21.69;29.49;99454.63;4983595;28;20680;-82